Time;durP1;ratioP1;P1;durP2;ratioP2;P2;SDS_P1;SDS_P2;PMS_P1;PMS_P2;Temp;Humidity;BMP_temperature;BMP_pressure;BME280_temperature;BME280_humidity;BME280_pressure;Samples;Min_cycle;Max_cycle;Signal;HPM_P1;HPM_P2
2021/08/02 00:00:22;;;;;;;8.07;2.15;;;;;;;15.23;76.92;101437.81;5011962;28;20393;-47
2021/08/02 00:02:47;;;;;;;5.55;2.10;;;;;;;15.22;76.64;101428.19;5018146;28;20021;-47
2021/08/02 00:05:14;;;;;;;7.93;2.28;;;;;;;15.20;76.80;101432.53;5018517;28;20030;-48
2021/08/02 00:07:41;;;;;;;5.68;2.28;;;;;;;15.19;76.60;101427.28;5011651;28;20034;-48
2021/08/02 00:10:11;;;;;;;5.00;2.30;;;;;;;15.18;76.92;101429.06;4994586;28;20057;-46
2021/08/02 00:12:45;;;;;;;5.20;2.30;;;;;;;15.19;77.31;101430.78;5012806;28;20041;-47
2021/08/02 00:15:13;;;;;;;8.52;2.50;;;;;;;15.19;76.53;101429.91;5017702;28;20481;-46
2021/08/02 00:17:40;;;;;;;6.75;2.33;;;;;;;15.20;77.70;101432.53;5014524;28;20080;-47
2021/08/02 00:20:08;;;;;;;4.88;2.17;;;;;;;15.21;77.68;101430.78;5016397;28;20064;-48
2021/08/02 00:22:33;;;;;;;6.75;2.22;;;;;;;15.21;77.66;101433.41;5013857;28;20049;-47
2021/08/02 00:24:58;;;;;;;4.95;2.50;;;;;;;15.21;77.63;101438.69;5016562;28;20473;-48
2021/08/02 00:27:24;;;;;;;8.82;2.17;;;;;;;15.23;77.83;101429.94;5017073;28;20564;-46
2021/08/02 00:29:50;;;;;;;5.50;2.13;;;;;;;15.18;77.94;101431.69;5014857;28;20143;-47
2021/08/02 00:32:16;;;;;;;5.57;2.22;;;;;;;15.17;77.93;101432.53;5017640;28;20044;-47
2021/08/02 00:34:41;;;;;;;6.78;2.47;;;;;;;15.18;78.25;101433.44;5014043;28;20036;-47
2021/08/02 00:37:13;;;;;;;6.97;2.30;;;;;;;15.19;78.15;101436.03;5016137;28;20434;-46
2021/08/02 00:40:10;;;;;;;6.07;2.30;;;;;;;15.21;78.67;101425.53;5016286;28;20484;-49
2021/08/02 00:42:44;;;;;;;5.28;2.20;;;;;;;15.19;78.65;101429.91;5012189;28;20405;-46
2021/08/02 00:45:20;;;;;;;6.47;2.28;;;;;;;15.19;78.53;101427.28;5017027;28;20037;-47
2021/08/02 00:47:52;;;;;;;6.05;2.40;;;;;;;15.18;79.36;101430.81;5014887;28;20385;-47
2021/08/02 00:50:23;;;;;;;6.88;2.03;;;;;;;15.13;78.56;101430.75;5013323;28;20038;-52
2021/08/02 00:53:00;;;;;;;7.15;2.40;;;;;;;15.11;78.79;101427.28;5015344;28;20373;-49
2021/08/02 00:55:32;;;;;;;6.03;2.17;;;;;;;15.17;78.39;101431.66;5012650;28;20047;-47
2021/08/02 00:58:01;;;;;;;5.78;2.33;;;;;;;15.16;78.45;101430.78;5013772;28;20044;-47
2021/08/02 01:00:27;;;;;;;7.28;2.50;;;;;;;15.16;78.44;101435.16;5016429;28;20635;-47
2021/08/02 01:02:53;;;;;;;5.60;2.40;;;;;;;15.12;78.70;101436.91;5015068;28;20022;-47
2021/08/02 01:05:19;;;;;;;6.70;2.65;;;;;;;15.13;78.67;101425.50;5017665;28;20033;-46
2021/08/02 01:07:47;;;;;;;5.22;2.65;;;;;;;15.08;79.41;101431.63;5013497;28;20021;-47
2021/08/02 01:10:14;;;;;;;6.78;2.40;;;;;;;15.06;79.21;101428.13;5016631;28;20496;-46
2021/08/02 01:12:42;;;;;;;8.77;2.65;;;;;;;15.02;79.58;101433.34;5015879;28;20540;-48
2021/08/02 01:15:09;;;;;;;8.63;2.60;;;;;;;15.03;79.60;101428.97;5017778;28;20052;-50
2021/08/02 01:17:34;;;;;;;10.65;2.72;;;;;;;15.02;79.51;101429.84;5018858;28;20105;-51
2021/08/02 01:20:02;;;;;;;4.38;2.20;;;;;;;14.99;79.62;101437.72;5012101;28;20034;-47
2021/08/02 01:22:29;;;;;;;7.13;2.60;;;;;;;14.94;79.66;101431.59;5010395;28;20021;-50
2021/08/02 01:24:55;;;;;;;6.97;2.58;;;;;;;14.89;79.58;101430.66;5012375;28;20120;-46
2021/08/02 01:27:44;;;;;;;7.45;2.70;;;;;;;14.87;79.81;101445.56;5013947;28;20041;-47
2021/08/02 01:30:18;;;;;;;8.25;2.42;;;;;;;14.83;79.54;101436.75;5016312;28;20040;-47
2021/08/02 01:32:44;;;;;;;6.75;2.55;;;;;;;14.83;79.97;101442.00;5016721;28;20034;-47
2021/08/02 01:35:10;;;;;;;8.05;2.90;;;;;;;14.81;79.84;101435.91;5010938;28;20067;-50
2021/08/02 01:37:35;;;;;;;7.07;2.72;;;;;;;14.78;80.09;101432.38;5015989;28;20037;-47
2021/08/02 01:40:01;;;;;;;10.05;2.78;;;;;;;14.73;79.98;101444.59;5008228;28;20394;-47
2021/08/02 01:42:26;;;;;;;6.20;2.45;;;;;;;14.71;80.01;101435.81;5014296;28;20029;-47
2021/08/02 01:44:51;;;;;;;5.00;2.55;;;;;;;14.68;80.19;101436.69;5015640;28;20034;-47
2021/08/02 01:47:53;;;;;;;8.77;2.80;;;;;;;14.63;80.29;101437.53;5011794;28;20064;-48
2021/08/02 01:50:32;;;;;;;5.68;2.63;;;;;;;14.57;80.53;101436.66;4980149;28;20445;-50
2021/08/02 01:53:18;;;;;;;4.47;2.20;;;;;;;14.49;79.27;101434.84;5016724;28;20143;-48
2021/08/02 01:55:49;;;;;;;5.85;2.50;;;;;;;14.41;79.66;101440.03;5032068;28;20038;-49
2021/08/02 01:58:15;;;;;;;5.20;2.13;;;;;;;14.34;79.75;101437.31;5024224;28;20060;-49
2021/08/02 02:00:43;;;;;;;9.15;2.40;;;;;;;14.27;79.88;101436.41;5013978;28;20026;-46
2021/08/02 02:03:15;;;;;;;6.75;2.33;;;;;;;14.22;80.21;101433.72;5014516;28;20126;-47
2021/08/02 02:05:46;;;;;;;5.25;2.70;;;;;;;14.16;80.35;101443.28;5011129;28;20049;-47
2021/08/02 02:08:30;;;;;;;5.03;2.50;;;;;;;14.16;80.38;101438.94;5014616;28;20443;-47
2021/08/02 02:10:57;;;;;;;5.68;2.35;;;;;;;14.14;80.67;101437.19;5012235;28;20381;-47
2021/08/02 02:13:38;;;;;;;4.88;2.55;;;;;;;14.07;80.59;101436.25;5016589;28;20032;-47
2021/08/02 02:16:04;;;;;;;7.30;2.38;;;;;;;13.94;81.19;101434.38;5014902;28;20041;-47
2021/08/02 02:18:32;;;;;;;6.57;2.85;;;;;;;13.86;81.35;101438.69;5013681;28;20033;-47
2021/08/02 02:20:59;;;;;;;7.88;2.83;;;;;;;13.79;81.34;101445.59;5025952;28;20086;-47
2021/08/02 02:23:25;;;;;;;6.32;2.53;;;;;;;13.76;81.72;101448.22;5010939;28;20052;-48
2021/08/02 02:25:52;;;;;;;4.70;2.45;;;;;;;13.74;82.08;101438.56;5015234;28;20076;-47
2021/08/02 02:28:17;;;;;;;5.40;2.67;;;;;;;13.70;81.83;101442.03;5012050;28;20033;-47
2021/08/02 02:30:45;;;;;;;5.53;2.60;;;;;;;13.62;81.76;101441.94;5012684;28;20083;-48
2021/08/02 02:33:13;;;;;;;9.38;2.50;;;;;;;13.59;81.60;101446.28;5013539;28;20401;-46
2021/08/02 02:35:40;;;;;;;4.95;2.80;;;;;;;13.55;81.74;101447.97;5014334;28;20182;-48
2021/08/02 02:38:09;;;;;;;3.25;2.08;;;;;;;13.51;81.63;101445.31;5011360;28;20053;-46
2021/08/02 02:40:35;;;;;;;8.55;2.72;;;;;;;13.45;81.92;101440.03;5012919;28;20030;-46
2021/08/02 02:43:00;;;;;;;5.80;2.70;;;;;;;13.40;82.18;101445.22;5017100;28;20083;-48
2021/08/02 02:45:26;;;;;;;9.07;2.65;;;;;;;13.36;82.03;101441.66;5011022;28;20031;-48
2021/08/02 02:47:51;;;;;;;8.18;2.63;;;;;;;13.32;82.23;101445.13;5011056;28;20030;-47
2021/08/02 02:50:17;;;;;;;4.53;2.38;;;;;;;13.30;82.17;101444.22;5010212;28;20052;-47
2021/08/02 02:52:43;;;;;;;6.55;2.50;;;;;;;13.27;82.19;101446.81;5015796;28;20489;-48
2021/08/02 02:55:10;;;;;;;5.90;2.72;;;;;;;13.22;81.90;101443.28;5008115;28;20310;-47
2021/08/02 02:57:38;;;;;;;4.05;2.40;;;;;;;13.17;81.95;101439.72;5015910;28;20389;-48
2021/08/02 03:00:07;;;;;;;6.32;2.38;;;;;;;13.16;81.90;101442.31;5013453;28;20068;-51
2021/08/02 03:02:34;;;;;;;5.68;2.63;;;;;;;13.11;82.10;101439.63;5013155;28;20433;-48
2021/08/02 03:05:01;;;;;;;5.88;2.30;;;;;;;13.09;81.96;101445.69;5014964;28;20037;-48
2021/08/02 03:07:29;;;;;;;5.28;2.40;;;;;;;13.06;82.33;101454.38;5015530;28;20151;-46
2021/08/02 03:09:55;;;;;;;5.72;2.30;;;;;;;13.04;82.43;101450.88;5030969;28;20064;-49
2021/08/02 03:12:20;;;;;;;6.53;2.40;;;;;;;13.02;82.61;101453.47;5023804;28;20117;-47
2021/08/02 03:14:46;;;;;;;7.00;2.33;;;;;;;13.00;82.42;101451.66;5019480;28;20032;-47
2021/08/02 03:17:11;;;;;;;7.55;2.63;;;;;;;13.00;82.29;101456.91;5020352;28;20036;-48
2021/08/02 03:19:38;;;;;;;5.82;2.22;;;;;;;13.00;82.51;101451.66;5015687;28;20037;-47
2021/08/02 03:22:17;;;;;;;5.30;2.70;;;;;;;12.98;82.37;101459.53;5016970;28;20017;-47
2021/08/02 03:24:46;;;;;;;6.25;2.72;;;;;;;12.95;82.34;101459.47;5015778;28;20026;-50
2021/08/02 03:27:27;;;;;;;4.10;2.50;;;;;;;12.94;82.59;101456.81;5017304;28;20064;-47
2021/08/02 03:29:58;;;;;;;6.43;2.30;;;;;;;12.93;82.48;101455.94;5015791;28;20025;-47
2021/08/02 03:32:25;;;;;;;4.50;2.55;;;;;;;12.92;82.62;101453.34;5012790;28;20108;-48
2021/08/02 03:34:55;;;;;;;4.55;2.33;;;;;;;12.93;82.70;101452.44;5018142;28;20022;-47
2021/08/02 03:37:21;;;;;;;6.18;2.65;;;;;;;12.91;82.44;101459.41;5016195;28;20490;-46
2021/08/02 03:39:47;;;;;;;6.22;2.40;;;;;;;12.89;82.40;101461.13;5015998;28;20075;-47
2021/08/02 03:42:13;;;;;;;4.88;2.35;;;;;;;12.87;82.34;101458.47;5015809;28;20109;-47
2021/08/02 03:44:38;;;;;;;5.90;2.63;;;;;;;12.88;82.40;101461.97;5017744;28;20468;-47
2021/08/02 03:47:04;;;;;;;5.53;2.60;;;;;;;12.91;82.53;101462.91;5013789;28;20470;-48
2021/08/02 03:49:29;;;;;;;9.25;2.85;;;;;;;12.91;82.72;101468.16;5014943;28;20333;-49
2021/08/02 03:51:57;;;;;;;5.28;2.53;;;;;;;12.92;82.55;101471.66;5016685;28;20461;-53
2021/08/02 03:54:25;;;;;;;4.10;2.60;;;;;;;12.91;82.60;101468.16;5017640;28;20021;-47
2021/08/02 03:56:51;;;;;;;6.22;2.50;;;;;;;12.89;82.44;101477.72;5014895;28;20184;-49
2021/08/02 03:59:16;;;;;;;8.50;2.60;;;;;;;12.88;82.57;101478.56;5012109;28;20033;-48
2021/08/02 04:01:43;;;;;;;7.55;2.60;;;;;;;12.89;82.56;101479.44;5014825;28;20083;-47
2021/08/02 04:04:09;;;;;;;3.85;2.42;;;;;;;12.88;82.41;101485.53;5018863;28;20043;-49
2021/08/02 04:06:35;;;;;;;3.97;2.50;;;;;;;12.84;82.40;101482.00;5010855;28;20025;-48
2021/08/02 04:09:01;;;;;;;7.05;2.80;;;;;;;12.82;82.37;101486.34;5015692;28;20033;-52
2021/08/02 04:11:26;;;;;;;7.38;2.55;;;;;;;12.81;82.33;101488.91;5015313;28;20302;-48
2021/08/02 04:13:52;;;;;;;7.28;2.65;;;;;;;12.76;82.69;101490.59;5008439;28;20816;-47
2021/08/02 04:16:17;;;;;;;8.23;2.97;;;;;;;12.74;82.39;101487.09;5017173;28;20022;-46
2021/08/02 04:18:43;;;;;;;7.78;2.78;;;;;;;12.75;82.36;101496.69;5018111;28;20031;-47
2021/08/02 04:21:08;;;;;;;6.20;3.13;;;;;;;12.74;82.30;101495.84;5013832;28;20025;-46
2021/08/02 04:23:33;;;;;;;8.27;2.80;;;;;;;12.74;82.76;101498.44;5018768;28;20504;-47
2021/08/02 04:25:59;;;;;;;5.70;2.78;;;;;;;12.76;82.66;101496.72;5013433;28;20046;-49
2021/08/02 04:28:24;;;;;;;6.03;2.70;;;;;;;12.80;83.10;101495.03;5016473;28;20036;-46
2021/08/02 04:30:50;;;;;;;4.63;2.50;;;;;;;12.82;82.90;101498.53;5014157;28;20029;-49
2021/08/02 04:33:15;;;;;;;7.68;3.13;;;;;;;12.80;82.63;101505.50;5016156;28;20033;-49
2021/08/02 04:35:41;;;;;;;9.38;2.92;;;;;;;12.80;82.68;101495.91;5019780;28;20384;-50
2021/08/02 04:38:07;;;;;;;5.95;2.67;;;;;;;12.87;82.56;101497.75;5017418;28;20515;-46
2021/08/02 04:40:32;;;;;;;5.43;2.70;;;;;;;12.95;82.58;101497.84;5013310;28;20124;-47
2021/08/02 04:42:58;;;;;;;7.10;2.63;;;;;;;13.06;82.22;101498.88;5016867;28;20029;-46
2021/08/02 04:45:23;;;;;;;7.03;2.83;;;;;;;13.12;82.00;101496.38;5014107;28;20044;-46
2021/08/02 04:47:50;;;;;;;5.47;2.90;;;;;;;13.24;82.46;101493.00;5009365;28;20030;-46
2021/08/02 04:50:16;;;;;;;7.13;3.20;;;;;;;13.38;82.49;101496.69;5017521;28;20044;-46
2021/08/02 04:52:42;;;;;;;6.80;2.65;;;;;;;13.50;82.10;101499.44;5008833;28;20030;-48
2021/08/02 04:55:08;;;;;;;5.45;2.60;;;;;;;13.64;81.43;101495.25;5014751;28;20368;-50
2021/08/02 04:57:33;;;;;;;5.30;2.70;;;;;;;13.75;80.35;101490.13;5014564;28;20337;-46
2021/08/02 04:59:59;;;;;;;4.00;2.42;;;;;;;14.03;79.97;101499.13;5012216;28;20160;-46
2021/08/02 05:02:27;;;;;;;6.75;2.65;;;;;;;14.43;78.20;101501.25;5013968;28;20495;-50
2021/08/02 05:04:52;;;;;;;5.70;2.45;;;;;;;14.59;77.82;101500.50;5013702;28;20041;-47
2021/08/02 05:07:17;;;;;;;7.88;2.60;;;;;;;14.91;78.33;101491.94;5015565;28;20511;-49
2021/08/02 05:09:43;;;;;;;7.32;2.50;;;;;;;15.31;77.39;101495.63;5015701;28;20032;-48
2021/08/02 05:12:10;;;;;;;6.82;2.22;;;;;;;15.55;75.37;101500.16;5015513;28;20017;-49
2021/08/02 05:14:35;;;;;;;5.82;2.40;;;;;;;15.57;75.43;101506.25;5018225;28;20095;-47
2021/08/02 05:17:01;;;;;;;6.07;2.40;;;;;;;15.47;75.38;101502.69;5013498;28;20844;-52
2021/08/02 05:19:26;;;;;;;6.80;2.38;;;;;;;15.54;75.38;101508.88;5014787;28;20112;-50
2021/08/02 05:21:51;;;;;;;6.70;2.50;;;;;;;15.52;75.00;101502.72;5011975;28;20484;-50
2021/08/02 05:24:16;;;;;;;5.40;2.45;;;;;;;15.48;75.47;101507.09;5019255;28;20468;-48
2021/08/02 05:26:42;;;;;;;5.55;2.28;;;;;;;15.42;75.83;101504.44;5011637;28;20095;-49
2021/08/02 05:29:08;;;;;;;4.50;2.47;;;;;;;15.39;74.95;101507.94;5015828;28;20590;-49
2021/08/02 05:31:33;;;;;;;5.20;2.35;;;;;;;15.38;76.13;101508.78;5016624;28;20030;-46
2021/08/02 05:33:58;;;;;;;9.23;2.50;;;;;;;15.39;75.92;101515.81;5010960;28;20040;-49
2021/08/02 05:36:24;;;;;;;6.80;2.80;;;;;;;15.40;75.48;101517.56;5017904;28;20071;-48
2021/08/02 05:38:49;;;;;;;8.27;2.80;;;;;;;15.47;75.62;101520.22;5012917;28;20112;-47
2021/08/02 05:41:15;;;;;;;7.65;3.10;;;;;;;15.49;74.14;101518.47;5012962;28;20326;-47
2021/08/02 05:43:40;;;;;;;9.13;2.90;;;;;;;15.57;74.44;101517.66;5012980;28;20033;-47
2021/08/02 05:46:06;;;;;;;7.25;2.83;;;;;;;15.67;75.33;101515.94;5012054;28;20147;-47
2021/08/02 05:48:32;;;;;;;6.50;2.70;;;;;;;15.78;75.42;101522.09;5017352;28;20029;-46
2021/08/02 05:50:57;;;;;;;9.65;2.67;;;;;;;15.81;73.04;101528.22;5015640;28;20401;-47
2021/08/02 05:53:22;;;;;;;8.20;3.00;;;;;;;15.94;73.96;101521.25;5014945;28;20120;-47
2021/08/02 05:55:48;;;;;;;7.03;2.65;;;;;;;16.04;73.80;101527.41;5014590;28;20025;-47
2021/08/02 05:58:13;;;;;;;7.88;2.33;;;;;;;16.15;72.90;101520.41;5015362;28;20411;-47
2021/08/02 06:00:39;;;;;;;7.20;2.38;;;;;;;16.28;71.96;101523.94;5013740;28;20392;-48
2021/08/02 06:03:04;;;;;;;5.18;2.28;;;;;;;16.39;71.85;101520.41;5014044;28;20030;-49
2021/08/02 06:05:30;;;;;;;5.82;2.30;;;;;;;16.52;70.89;101521.28;5016151;28;20045;-47
2021/08/02 06:07:56;;;;;;;7.13;2.20;;;;;;;16.70;71.27;101518.69;5014681;28;20036;-46
2021/08/02 06:10:21;;;;;;;11.20;2.20;;;;;;;16.91;69.45;101515.97;5012919;28;20024;-48
2021/08/02 06:12:47;;;;;;;7.90;2.08;;;;;;;17.33;68.61;101512.31;5013849;28;20026;-46
2021/08/02 06:15:12;;;;;;;7.22;1.88;;;;;;;18.28;66.30;101517.94;5017749;28;20053;-46
2021/08/02 06:17:38;;;;;;;5.45;1.77;;;;;;;19.56;61.87;101509.59;5014610;28;20087;-46
2021/08/02 06:20:05;;;;;;;4.30;1.40;;;;;;;20.77;55.98;101512.06;5008853;28;20819;-46
2021/08/02 06:22:30;;;;;;;7.05;1.75;;;;;;;21.90;55.08;101513.25;5020074;28;20038;-49
2021/08/02 06:24:55;;;;;;;4.85;1.55;;;;;;;22.97;50.60;101514.16;5011163;28;20511;-48
2021/08/02 06:27:21;;;;;;;5.25;1.30;;;;;;;23.95;47.77;101512.13;5014134;28;20049;-47
2021/08/02 06:29:46;;;;;;;3.00;1.17;;;;;;;25.12;44.87;101508.16;5015344;28;20476;-49
2021/08/02 06:32:11;;;;;;;4.90;1.20;;;;;;;25.59;43.20;101511.72;5013374;28;20049;-47
2021/08/02 06:34:37;;;;;;;4.55;1.52;;;;;;;26.28;44.75;101515.22;5011696;28;20079;-50
2021/08/02 06:37:02;;;;;;;4.78;1.35;;;;;;;26.68;41.16;101499.22;5016341;28;20029;-49
2021/08/02 06:39:28;;;;;;;6.32;1.40;;;;;;;26.96;41.91;101496.19;5016966;28;20078;-48
2021/08/02 06:41:53;;;;;;;4.35;1.30;;;;;;;27.21;43.30;101502.19;5011340;28;20453;-49
2021/08/02 06:44:19;;;;;;;3.55;1.10;;;;;;;26.98;40.74;101502.38;5004374;28;20029;-48
2021/08/02 06:46:44;;;;;;;4.18;1.10;;;;;;;26.10;42.09;101509.69;5007186;28;20042;-53
2021/08/02 06:49:09;;;;;;;6.30;1.30;;;;;;;24.30;43.58;101511.00;5011031;28;20061;-48
2021/08/02 06:51:35;;;;;;;3.80;1.30;;;;;;;23.03;47.89;101514.84;5015913;28;20056;-48
2021/08/02 06:54:00;;;;;;;3.85;1.13;;;;;;;21.60;53.73;101520.13;5014214;28;20029;-49
2021/08/02 06:56:26;;;;;;;6.55;1.70;;;;;;;20.99;53.01;101521.34;5019651;28;20488;-50
2021/08/02 06:58:51;;;;;;;4.70;1.50;;;;;;;20.35;57.62;101515.47;5014408;28;20537;-48
2021/08/02 07:01:17;;;;;;;4.43;1.23;;;;;;;20.16;55.37;101520.16;5018656;28;20056;-49
2021/08/02 07:03:42;;;;;;;4.30;1.55;;;;;;;20.04;58.03;101512.41;5017000;28;20030;-48
2021/08/02 07:06:08;;;;;;;4.95;1.33;;;;;;;21.05;55.83;101515.06;5014125;28;20489;-50
2021/08/02 07:08:36;;;;;;;4.95;1.33;;;;;;;22.79;50.19;101517.31;5012343;28;20395;-54
2021/08/02 07:11:01;;;;;;;4.30;1.30;;;;;;;24.00;46.47;101521.72;5013735;28;20113;-51
2021/08/02 07:13:28;;;;;;;3.72;1.20;;;;;;;23.98;45.63;101528.00;5012099;28;20301;-47
2021/08/02 07:15:53;;;;;;;5.65;1.70;;;;;;;22.93;47.22;101526.63;5016794;28;20038;-50
2021/08/02 07:18:21;;;;;;;4.03;1.27;;;;;;;21.90;49.75;101534.50;5017262;28;20373;-49
2021/08/02 07:20:48;;;;;;;7.78;1.45;;;;;;;21.35;52.65;101527.72;5014341;28;20409;-50
2021/08/02 07:23:14;;;;;;;4.65;1.40;;;;;;;21.05;52.95;101538.91;5017719;28;20513;-48
2021/08/02 07:25:39;;;;;;;8.25;1.80;;;;;;;20.48;54.85;101536.44;5013024;28;20049;-49
2021/08/02 07:28:05;;;;;;;5.75;1.50;;;;;;;20.15;55.74;101540.47;5019650;28;20033;-48
2021/08/02 07:30:30;;;;;;;6.45;1.77;;;;;;;19.49;59.17;101537.00;5013731;28;20025;-49
2021/08/02 07:32:56;;;;;;;5.72;1.75;;;;;;;18.94;62.71;101555.22;5017100;28;20259;-54
2021/08/02 07:35:21;;;;;;;6.35;1.70;;;;;;;18.75;61.59;101554.53;5015810;28;20500;-48
2021/08/02 07:37:47;;;;;;;5.13;1.60;;;;;;;18.40;63.93;101565.38;5014217;28;20021;-47
2021/08/02 07:40:13;;;;;;;4.93;1.80;;;;;;;18.03;63.39;101563.88;5009846;28;20025;-49
2021/08/02 07:42:39;;;;;;;5.10;2.00;;;;;;;17.88;67.40;101564.81;5015744;28;20033;-47
2021/08/02 07:45:05;;;;;;;4.57;2.00;;;;;;;17.78;65.07;101561.38;5016807;28;20037;-49
2021/08/02 07:47:32;;;;;;;7.25;2.10;;;;;;;17.71;65.87;101567.56;5017195;28;20087;-51
2021/08/02 07:49:57;;;;;;;6.82;2.00;;;;;;;17.56;65.01;101569.38;5019139;28;20071;-49
2021/08/02 07:52:23;;;;;;;5.78;1.95;;;;;;;17.32;66.01;101570.34;5016594;28;20120;-50
2021/08/02 07:54:49;;;;;;;7.22;2.38;;;;;;;17.35;66.30;101579.09;5015574;28;20115;-48
2021/08/02 07:57:14;;;;;;;6.00;2.28;;;;;;;17.06;68.56;101575.66;5017108;28;20029;-50
2021/08/02 07:59:39;;;;;;;6.03;2.10;;;;;;;17.12;68.05;101573.03;5015261;28;20123;-48
2021/08/02 08:02:05;;;;;;;4.95;2.00;;;;;;;16.94;68.17;101573.94;5016721;28;20040;-53
2021/08/02 08:04:31;;;;;;;6.03;2.17;;;;;;;16.77;70.09;101575.69;5020358;28;20053;-47
2021/08/02 08:06:56;;;;;;;8.35;2.38;;;;;;;16.72;70.66;101577.44;5015460;28;20061;-49
2021/08/02 08:09:22;;;;;;;5.03;2.08;;;;;;;16.80;73.54;101580.09;5019048;28;20686;-49
2021/08/02 08:11:48;;;;;;;5.15;2.30;;;;;;;16.88;70.94;101570.44;5011954;28;20022;-48
2021/08/02 08:14:15;;;;;;;3.92;2.00;;;;;;;16.97;71.44;101575.66;5019578;28;20474;-53
2021/08/02 08:16:40;;;;;;;8.40;2.40;;;;;;;16.97;72.30;101575.66;5014221;28;20053;-49
2021/08/02 08:19:06;;;;;;;8.85;2.20;;;;;;;17.11;70.78;101573.91;5012265;28;20095;-48
2021/08/02 08:21:35;;;;;;;8.00;2.10;;;;;;;17.23;69.56;101570.34;5016876;28;20548;-48
2021/08/02 08:24:02;;;;;;;4.85;1.83;;;;;;;17.52;69.69;101575.50;5012049;28;20029;-48
2021/08/02 08:26:27;;;;;;;6.55;2.08;;;;;;;17.82;67.58;101568.38;5018109;28;20172;-48
2021/08/02 08:28:52;;;;;;;4.22;1.85;;;;;;;18.03;64.95;101574.44;5011221;28;20393;-49
2021/08/02 08:31:18;;;;;;;6.47;1.88;;;;;;;18.25;66.48;101576.91;5015456;28;20034;-51
2021/08/02 08:33:44;;;;;;;7.50;1.90;;;;;;;18.35;66.01;101580.38;5016091;28;20270;-48
2021/08/02 08:36:11;;;;;;;5.70;1.95;;;;;;;18.51;63.39;101573.19;5016626;28;20044;-49
2021/08/02 08:38:37;;;;;;;7.85;2.20;;;;;;;18.63;66.40;101581.94;5013013;28;20041;-48
2021/08/02 08:41:02;;;;;;;5.57;1.80;;;;;;;18.64;64.08;101572.25;5014996;28;20448;-50
2021/08/02 08:43:27;;;;;;;5.65;1.98;;;;;;;18.70;64.45;101572.19;5019158;28;20108;-48
2021/08/02 08:45:53;;;;;;;7.15;2.22;;;;;;;18.71;65.53;101571.31;5015222;28;20029;-50
2021/08/02 08:48:18;;;;;;;5.75;2.10;;;;;;;18.91;64.77;101568.44;5011527;28;20033;-48
2021/08/02 08:50:44;;;;;;;5.72;1.90;;;;;;;19.04;63.29;101572.72;5012220;28;20079;-49
2021/08/02 08:53:11;;;;;;;7.97;2.10;;;;;;;19.01;61.85;101576.28;5014585;28;20511;-48
2021/08/02 08:55:40;;;;;;;6.15;1.95;;;;;;;19.18;62.26;101576.09;5011040;28;20059;-49
2021/08/02 08:58:05;;;;;;;5.80;1.80;;;;;;;19.27;61.06;101567.22;5014791;28;20586;-49
2021/08/02 09:00:31;;;;;;;5.78;1.80;;;;;;;19.35;59.64;101578.56;5015648;28;20025;-50
2021/08/02 09:02:56;;;;;;;5.38;1.80;;;;;;;19.54;60.10;101573.97;5012556;28;20458;-50
2021/08/02 09:05:41;;;;;;;5.60;1.80;;;;;;;19.84;61.40;101577.09;5013630;28;20037;-52
2021/08/02 09:08:07;;;;;;;4.43;1.75;;;;;;;20.16;58.27;101578.41;5013207;28;20561;-52
2021/08/02 09:10:34;;;;;;;5.10;1.58;;;;;;;20.26;56.67;101583.53;5008402;28;20033;-48
2021/08/02 09:13:01;;;;;;;5.03;1.60;;;;;;;20.45;55.26;101575.34;5010809;28;20048;-50
2021/08/02 09:15:31;;;;;;;7.82;1.67;;;;;;;20.45;57.51;101578.84;5016571;28;20029;-52
2021/08/02 09:17:56;;;;;;;5.03;1.50;;;;;;;20.43;54.64;101574.50;5014947;28;20091;-49
2021/08/02 09:20:23;;;;;;;4.35;1.60;;;;;;;20.35;54.76;101579.91;5013585;28;20500;-52
2021/08/02 09:22:49;;;;;;;3.65;1.40;;;;;;;20.28;55.94;101586.16;5018624;28;20061;-48
2021/08/02 09:25:16;;;;;;;3.80;1.58;;;;;;;20.21;60.51;101581.84;5011662;28;20040;-48
2021/08/02 09:27:43;;;;;;;6.18;1.60;;;;;;;20.15;54.47;101579.28;5008219;28;20033;-50
2021/08/02 09:30:18;;;;;;;4.75;1.55;;;;;;;20.22;56.18;101581.84;5013057;28;20044;-47
2021/08/02 09:32:54;;;;;;;6.55;1.80;;;;;;;20.27;55.58;101584.41;5014488;28;20029;-49
2021/08/02 09:35:36;;;;;;;6.90;1.58;;;;;;;20.50;57.45;101579.66;5013857;28;20526;-48
2021/08/02 09:38:08;;;;;;;5.55;1.67;;;;;;;20.62;56.44;101584.75;5014096;28;20514;-49
2021/08/02 09:40:41;;;;;;;7.53;1.67;;;;;;;20.77;51.45;101588.03;5027179;28;20022;-50
2021/08/02 09:43:13;;;;;;;6.78;1.50;;;;;;;21.01;52.31;101600.88;5011868;28;20036;-54
2021/08/02 09:45:42;;;;;;;5.18;1.50;;;;;;;21.11;53.35;101596.25;5011784;28;20034;-49
2021/08/02 09:48:08;;;;;;;4.68;1.40;;;;;;;21.19;52.34;101591.72;5012326;28;20116;-48
2021/08/02 09:50:34;;;;;;;5.30;1.67;;;;;;;21.25;51.56;101591.59;5011571;28;20043;-53
2021/08/02 09:52:59;;;;;;;5.65;1.50;;;;;;;21.24;50.96;101588.09;5013572;28;20116;-48
2021/08/02 09:55:26;;;;;;;4.18;1.33;;;;;;;21.32;52.46;101591.47;5013142;28;20029;-49
2021/08/02 09:57:55;;;;;;;3.45;1.50;;;;;;;21.51;51.70;101594.63;5013572;28;20435;-49
2021/08/02 10:00:21;;;;;;;4.80;1.58;;;;;;;21.74;49.46;101592.38;5010356;28;20045;-49
2021/08/02 10:02:48;;;;;;;4.22;1.38;;;;;;;22.20;49.30;101589.59;5012505;28;20026;-48
2021/08/02 10:05:15;;;;;;;5.38;1.60;;;;;;;22.38;47.98;101584.78;5012771;28;20033;-49
2021/08/02 10:07:42;;;;;;;4.78;1.40;;;;;;;22.32;47.11;101593.75;5014474;28;20029;-49
2021/08/02 10:10:08;;;;;;;4.57;1.50;;;;;;;22.35;46.89;101591.03;5012360;28;20032;-47
2021/08/02 10:12:42;;;;;;;5.55;1.50;;;;;;;22.45;46.55;101592.53;5013380;28;20427;-50
2021/08/02 10:15:12;;;;;;;5.35;1.35;;;;;;;22.53;45.65;101587.03;5013171;28;20045;-49
2021/08/02 10:17:38;;;;;;;5.18;1.30;;;;;;;22.51;45.65;101596.81;5026615;28;20540;-48
2021/08/02 10:20:04;;;;;;;3.60;1.30;;;;;;;22.71;44.66;101599.00;5011233;28;20153;-49
2021/08/02 10:22:30;;;;;;;4.05;1.30;;;;;;;23.05;46.01;101594.59;5013779;28;20036;-47
2021/08/02 10:24:56;;;;;;;3.92;1.10;;;;;;;23.25;43.83;101592.25;5011200;28;20029;-50
2021/08/02 10:27:29;;;;;;;2.85;1.20;;;;;;;23.00;42.54;101591.16;5013092;28;20053;-47
2021/08/02 10:29:55;;;;;;;3.47;1.20;;;;;;;23.10;44.27;101571.41;5011051;28;20405;-47
2021/08/02 10:32:21;;;;;;;3.92;1.20;;;;;;;23.44;44.46;101580.19;5006852;28;20368;-49
2021/08/02 10:34:54;;;;;;;6.28;1.40;;;;;;;23.29;42.37;101580.63;5011005;28;20118;-47
2021/08/02 10:37:30;;;;;;;5.28;1.17;;;;;;;23.23;42.30;101577.28;5011022;28;20033;-47
2021/08/02 10:40:04;;;;;;;3.95;1.10;;;;;;;23.10;40.87;101571.41;5008881;28;20554;-47
2021/08/02 10:42:29;;;;;;;3.08;1.33;;;;;;;22.99;43.17;101571.69;5012569;28;20026;-48
2021/08/02 10:44:56;;;;;;;4.05;1.23;;;;;;;22.98;44.99;101577.94;5012683;28;20117;-48
2021/08/02 10:47:21;;;;;;;5.70;1.20;;;;;;;23.01;43.00;101584.94;5022420;28;20044;-48
2021/08/02 10:49:51;;;;;;;5.63;1.40;;;;;;;23.33;43.02;101579.63;5009536;28;20033;-46
2021/08/02 10:52:26;;;;;;;3.28;1.02;;;;;;;22.96;44.55;101584.19;5013583;28;20087;-48
2021/08/02 10:54:52;;;;;;;3.88;1.10;;;;;;;23.08;42.31;101583.88;5014628;28;20022;-49
2021/08/02 10:57:17;;;;;;;4.80;1.35;;;;;;;22.98;42.93;101580.59;5012378;28;20026;-50
2021/08/02 10:59:43;;;;;;;4.57;1.30;;;;;;;23.18;45.01;101584.47;5010028;28;20063;-49
2021/08/02 11:02:10;;;;;;;5.30;1.20;;;;;;;22.90;42.61;101589.69;5012081;28;20083;-47
2021/08/02 11:04:36;;;;;;;4.88;1.30;;;;;;;22.93;42.70;101584.28;5012316;28;20331;-46
2021/08/02 11:07:01;;;;;;;4.65;1.20;;;;;;;22.70;43.00;101586.59;5013599;28;20472;-46
2021/08/02 11:09:28;;;;;;;3.63;1.33;;;;;;;22.73;42.43;101591.91;5013685;28;20045;-47
2021/08/02 11:12:02;;;;;;;4.40;1.30;;;;;;;22.78;41.43;101585.56;5010274;28;20029;-47
2021/08/02 11:14:28;;;;;;;2.70;1.10;;;;;;;22.87;44.03;101593.28;5016525;28;20060;-47
2021/08/02 11:16:53;;;;;;;3.28;1.30;;;;;;;22.85;43.27;101591.59;5010890;28;20505;-50
2021/08/02 11:19:21;;;;;;;4.68;1.50;;;;;;;22.61;44.54;101588.59;5011776;28;20738;-47
2021/08/02 11:21:48;;;;;;;4.05;1.40;;;;;;;22.82;46.48;101596.97;5012518;28;20044;-48
2021/08/02 11:24:14;;;;;;;3.30;1.25;;;;;;;22.64;44.70;101596.50;5013861;28;20049;-48